CYVV

Wiarton Airport

Wiarton, , Canada
METAR CYVV 222000Z 26008KT 240V300 15SM FEW028 09/01 A2997 RMK SC2 SLP157
Observed Flight Rules
Oct-22 @ 20:00 UTC (48 minutes ago) Visual Flight Rules
Wind Visibility Clouds
260° at 8 knots 15 miles
  • Few at 2,800' AGL
Temperatures Readings
Current 9°C / 48°F
Dewpoint 1°C / 34°F
Humidity 58%
Altimeter 29.97" Hg
Pressure 1015.7 hPa
Elevation 222
METAR CYVV 222000Z 26008KT 240V300 15SM FEW028 09/01 A2997 RMK SC2 SLP157
Observed Flight Rules
Oct-22 @ 20:00 UTC
(48 minutes ago)
VFR
Wind Visibility
260° at 8 knots 15 miles
Clouds
  • Few at 2,800' AGL
Temperature Dewpoint
9°C / 48°F 1°C / 34°F
Humidity Altimeter Pressure
58% 29.97" Hg 1015.7 hPa